Tiempo atmosférico en la estación meteorológica de Villamayor de los Montes, Burgos (882 m.)



Fecha
DESCASC
Temp. máxima en grados centígrados (hora)
DESCASC
Temp. mínima en grados centígrados (hora)
DESCASC
Temp. media en grados centígrados
DESCASC
Racha de viento máxima en m/sg (hora)
DESCASC
Velocidad máxima media en intervalos de 10 minutos(hora)
DESCASC
Precipitaciones diarias en mm
DESCASC
Precipitaciones de 00:00 a 06:00 en mm
DESCASC
Precipitaciones de 06:00 a 12:00 en mm
DESCASC
Precipitaciones de 12:00 a 18:00 en mm
DESCASC
Precipitaciones de 18:00 a 24:00 en mm
DESCASC
13-01-2021 5 (16:20) -5.9 (04:20) -0.5 4.17 (16:10) 2.22 (15:30) 0 0 0 0 0
12-01-2021 3.6 (16:10) -5.6 (09:00) -1 7.5 (02:30) 4.17 (02:40) 0 0 0 0 0
11-01-2021 1.3 (13:10) -1.5 (22:00) -0.1 15.83 (00:10) 10.83 (02:10) 0 0 0 0 0
10-01-2021 0.6 (13:00) -2.8 (00:00) -1.1 16.39 (09:10) 11.39 (23:10) 0 0 0 0 0
09-01-2021 -2.5 (17:10) -3.9 (-00:0) -3.2 18.33 (11:10) 8.89 (09:20) 1.2 0 0.6 0.6 0
08-01-2021 -1 (14:10) -4.8 (-00:0) -2.9 11.39 (11:40) 6.94 (11:50) 0 0 0 0 0
07-01-2021 3.7 (15:10) -6.5 (-00:0) -1.4 7.5 (23:50) 4.72 (23:50) 0 0 0 0 0
06-01-2021 4.1 (16:10) -5.6 (-00:0) -0.8 5.56 (16:20) 2.78 (16:20) 0 0 0 0 0
05-01-2021 2.6 (17:10) -5.7 (-00:0) -1.5 5.28 (06:30) 3.61 (06:40) 0 0 0 0 0
04-01-2021 2.7 (15:00) -4.3 (-00:0) -0.8 6.94 (11:10) 3.89 (10:10) 0.2 0 0 0 0.2
03-01-2021 3 (15:30) -4.7 (-00:0) -0.8 8.89 (16:40) 6.11 (18:10) 0 0 0 0 0
02-01-2021 1.9 (15:10) -4 (-00:0) -1.1 12.5 (12:00) 8.06 (15:00) 0 0 0 0 0
01-01-2021 2.7 (14:20) -2.3 (-00:0) 0.2 10 (15:30) 5.83 (15:30) 0.4 0 0 0.4 0
31-12-2020 5 (16:20) -0.8 (-00:0) 2.1 10.83 (11:10) 6.67 (09:30) 3.8 0 0 0.4 3.4
30-12-2020 4.6 (14:30) -3 (-00:0) 0.8 6.94 (00:10) 4.17 (23:40) 0 0 0 0 0
29-12-2020 4.7 (14:10) -1.3 (-00:0) 1.7 10 (15:10) 5.56 (06:10) 0 0 0 0 0
28-12-2020 5.9 (16:20) -0.2 (00:00) 2.9 17.78 (00:10) 10.83 (00:10) 5.6 5.6 0 0 0
27-12-2020 4.5 (23:59) -2.6 (-00:0) 1 21.67 (22:10) 11.67 (20:10) 2.2 0 0 0 2.2
26-12-2020 4.7 (14:30) -2 (-00:0) 1.3 10.83 (12:10) 5.83 (13:00) 0 0 0 0 0
25-12-2020 3.3 (14:20) -1 (-00:0) 1.1 12.22 (12:50) 8.06 (12:50) 0 0 0 0 0
24-12-2020 7.5 (15:40) 2.1 (00:00) 4.8 10.56 (11:10) 5.56 (12:30) 0 0 0 0 0
23-12-2020 10.4 (00:00) 6.9 (00:00) 8.6 10.28 (14:40) 6.67 (13:20) 0.4 0 0 0.4 0
22-12-2020 15.4 (14:40) 9.1 (00:00) 12.3 7.78 (15:10) 4.72 (09:00) 0.2 0 0.2 0 0
21-12-2020 9.2 (22:50) 5.3 (00:00) 7.3 8.61 (05:10) 5.28 (05:40) 1 0.6 0 0 0.4
20-12-2020 5.4 (23:59) 3.4 (00:00) 4.4 6.39 (14:20) 4.72 (21:10) 0.4 0 0 0 0.4
19-12-2020 7.8 (16:20) 4.3 (00:00) 6.1 10.56 (11:10) 6.67 (07:00) 4.2 2 1 0.6 0.6
18-12-2020 8.7 (14:40) 1.3 (00:00) 5 9.72 (14:10) 5.83 (12:40) 0 0 0 0 0

Gráficas

Temp. máximas Temp. mínimas Temp. medias Precipitaciones Rachas de viento máximas Velocidades máximas media en intervalos de 10 minutos

Datos horarios

Fecha y hora oficial Temperatura (ºC) Velocidad del viento (km/h) Dirección del viento Racha (km/h) Dirección de racha Precipitación (mm) Presión (hPa) Tendencia (hPa) Humedad (%)
2021-01-16 23:00:00 -4.4 0 Calma 4 Sur 0 -- -- 97
2021-01-16 22:00:00 -4 3 Sur 5 Sur 0 -- -- 98
2021-01-16 21:00:00 -3.4 3 Oeste 7 Sudoeste 0 -- -- 98
2021-01-16 20:00:00 -3 4 Sudoeste 7 Sudoeste 0 -- -- 98
2021-01-16 19:00:00 -2.7 4 Sur 9 Sur 0 -- -- 98
2021-01-16 18:00:00 -3 3 Este 6 Este 0 -- -- 98
2021-01-16 17:00:00 -2.6 3 Norte 6 Oeste 0 -- -- 98
2021-01-16 16:00:00 -2.5 4 Oeste 9 Sudoeste 0 -- -- 97
2021-01-16 15:00:00 -2.1 3 Oeste 8 Oeste 0 -- -- 98
2021-01-16 14:00:00 -2.6 4 Sudoeste 7 Oeste 0 -- -- 97
2021-01-16 13:00:00 -3.2 4 Sur 8 Sudoeste 0 -- -- 97
2021-01-16 12:00:00 -4.4 2 Oeste 5 Oeste 0 -- -- 97
2021-01-16 11:00:00 -5.4 3 Norte 6 Noroeste 0 -- -- 96
2021-01-16 10:00:00 -5.7 2 Sudoeste 6 Sudoeste 0 -- -- 96
2021-01-16 09:00:00 -5.3 0 Calma 5 Oeste 0 -- -- 96
2021-01-16 08:00:00 -4.8 0 Calma 6 Este 0 -- -- 96
2021-01-16 07:00:00 -4.9 0 Calma 2 Norte 0 -- -- 96
2021-01-16 06:00:00 -5.3 0 Calma 4 Este 0 -- -- 96
2021-01-16 05:00:00 -5.3 0 Calma 4 Sudoeste 0 -- -- 96
2021-01-16 04:00:00 -5.1 0 Calma 5 Noroeste 0 -- -- 96
2021-01-16 03:00:00 -4.4 0 Calma 7 Oeste 0 -- -- 96
2021-01-16 02:00:00 -3.4 4 Oeste 9 Noroeste 0 -- -- 95
2021-01-16 01:00:00 -2.5 4 Noroeste 11 Noroeste 0 -- -- 96
2021-01-16 00:00:00 -1.9 6 Norte 12 Norte 0 -- -- 96
2021-01-15 23:00:00 -1.6 4 Norte 9 Nordeste 0 -- -- 96
2021-01-15 22:00:00 -2 6 Norte 10 Norte 0 -- -- 96
2021-01-15 21:00:00 -1 5 Noroeste 10 Norte 0 -- -- 94
2021-01-15 20:00:00 -0.3 3 Oeste 10 Norte 0 -- -- 89
2021-01-15 19:00:00 1.5 5 Noroeste 14 Norte 0 -- -- 85
2021-01-15 18:00:00 3.7 5 Norte 40 Norte 0 -- -- 78
2021-01-15 17:00:00 5.8 17 Norte 29 Norte 0 -- -- 72
2021-01-15 16:00:00 5.9 13 Norte 29 Nordeste 0 -- -- 74
2021-01-15 15:00:00 5.6 18 Norte 30 Norte 0 -- -- 73
2021-01-15 14:00:00 3.2 7 Noroeste 14 Noroeste 0 -- -- 89
2021-01-15 13:00:00 1.1 5 Noroeste 10 Noroeste 0 -- -- 93
2021-01-15 12:00:00 -0.8 5 Noroeste 9 Noroeste 0 -- -- 98
2021-01-15 11:00:00 -2.8 4 Noroeste 10 Norte 0 -- -- 98
2021-01-15 10:00:00 -4.5 4 Oeste 6 Sudoeste 0 -- -- 97
2021-01-15 09:00:00 -5.3 0 Calma 5 Oeste 0 -- -- 96
2021-01-15 08:00:00 -4.7 0 Calma 4 Noroeste 0 -- -- 97
2021-01-15 07:00:00 -4.1 0 Calma 5 Nordeste 0 -- -- 97
2021-01-15 06:00:00 -4.1 3 Sudeste 7 Este 0 -- -- 97
2021-01-15 05:00:00 -3.2 0 Calma 5 Este 0 -- -- 98
2021-01-15 04:00:00 -2.8 0 Calma 4 Sudoeste 0 -- -- 98
2021-01-15 03:00:00 -3.2 3 Oeste 6 Noroeste 0 -- -- 98
2021-01-15 02:00:00 -2.9 3 Sudoeste 6 Oeste 0 -- -- 98
2021-01-15 01:00:00 -2.7 4 Noroeste 8 Noroeste 0 -- -- 98
2021-01-15 00:00:00 -1.6 4 Noroeste 7 Sudoeste 0 -- -- 98
2021-01-14 23:00:00 -1.1 2 Nordeste 10 Noroeste 0 -- -- 98
2021-01-14 22:00:00 -1.1 2 Noroeste 8 Noroeste 0 -- -- 98
2021-01-14 21:00:00 -0.7 2 Norte 8 Oeste 0 -- -- 98
2021-01-14 20:00:00 -0.8 4 Noroeste 8 Noroeste 0 -- -- 98
2021-01-14 19:00:00 -1 0 Calma 8 Oeste 0 -- -- 98
2021-01-14 18:00:00 -0.9 4 Oeste 9 Noroeste 0 -- -- 98
2021-01-14 17:00:00 -0.4 4 Noroeste 8 Noroeste 0 -- -- 98
2021-01-14 16:00:00 0.1 4 Noroeste 10 Noroeste 0 -- -- 98
2021-01-14 15:00:00 -0.5 5 Norte 13 Norte 0 -- -- 98
2021-01-14 14:00:00 -1.7 5 Norte 11 Norte 0 -- -- 98
2021-01-14 13:00:00 -2.7 3 Norte 6 Norte 0 -- -- 97
2021-01-14 12:00:00 -3.7 5 Norte 9 Norte 0 -- -- 97
2021-01-14 11:00:00 -4.8 2 Noroeste 5 Noroeste 0 -- -- 97
2021-01-14 10:00:00 -6 3 Norte 4 Norte 0 -- -- 96
2021-01-14 09:00:00 -6.4 3 Norte 5 Norte 0 -- -- 95
2021-01-14 08:00:00 -6.3 0 Calma 3 Sudoeste 0 -- -- 95
2021-01-14 07:00:00 -6.3 0 Calma 5 Noroeste 0 -- -- 96
2021-01-14 06:00:00 -5.8 2 Noroeste 5 Noroeste 0 -- -- 96
2021-01-14 05:00:00 -5.2 3 Oeste 5 Oeste 0 -- -- 96
2021-01-14 04:00:00 -4.8 0 Calma 4 Oeste 0 -- -- 96
2021-01-14 03:00:00 -4.5 0 Calma 4 Este 0 -- -- 97
2021-01-14 02:00:00 -4.4 0 Calma 6 Este 0 -- -- 97
2021-01-14 01:00:00 -4.1 3 Este 5 Este 0 -- -- 96
2021-01-14 00:00:00 -3.7 2 Este 5 Este 0 -- -- 96
2021-01-13 23:00:00 -3.3 2 Nordeste 3 Noroeste 0 -- -- 95
2021-01-13 22:00:00 -2.2 2 Sudoeste 5 Oeste 0 -- -- 95
2021-01-13 21:00:00 -1.7 2 Oeste 5 Noroeste 0 -- -- 93
2021-01-13 20:00:00 -0.5 3 Oeste 10 Noroeste 0 -- -- 91
2021-01-13 19:00:00 0.3 4 Noroeste 9 Noroeste 0 -- -- 91
2021-01-13 18:00:00 2.7 5 Noroeste 12 Noroeste 0 -- -- 83
2021-01-13 17:00:00 4.5 4 Noroeste 15 Sudoeste 0 -- -- 79
2021-01-13 16:00:00 4.7 6 Noroeste 14 Oeste 0 -- -- 80
2021-01-13 15:00:00 2.9 4 Noroeste 8 Noroeste 0 -- -- 97
2021-01-13 14:00:00 -0.4 3 Sudoeste 9 Sudoeste 0 -- -- 98
2021-01-13 13:00:00 -2.1 2 Oeste 9 Oeste 0 -- -- 98
2021-01-13 12:00:00 -3.3 5 Oeste 8 Oeste 0 -- -- 97
2021-01-13 11:00:00 -4.1 0 Calma 6 Nordeste 0 -- -- 97
2021-01-13 10:00:00 -5.7 0 Calma 6 Norte 0 -- -- 96
2021-01-13 09:00:00 -5.9 0 Calma 4 Oeste 0 -- -- 96
2021-01-13 08:00:00 -5.6 3 Sudoeste 5 Oeste 0 -- -- 95
2021-01-13 07:00:00 -5 4 Nordeste 6 Nordeste 0 -- -- 96
2021-01-13 06:00:00 -5.4 3 Nordeste 6 Nordeste 0 -- -- 95
2021-01-13 05:00:00 -5.6 3 Nordeste 4 Norte 0 -- -- 95
2021-01-13 04:00:00 -5.8 0 Calma 7 Este 0 -- -- 94
2021-01-13 03:00:00 -5.7 0 Calma 6 Sur 0 -- -- 94
2021-01-13 02:00:00 -5.5 0 Calma 2 Sur 0 -- -- 93
2021-01-13 01:00:00 -5.1 0 Calma 5 Nordeste 0 -- -- 93
2021-01-13 00:00:00 -4.5 0 Calma 3 Este 0 -- -- 93
2021-01-12 23:00:00 -4 0 Calma 6 Sur 0 -- -- 92
2021-01-12 22:00:00 -3.7 0 Calma 3 Sur 0 -- -- 91
2021-01-12 21:00:00 -2.5 3 Sur 4 Sur 0 -- -- 91
2021-01-12 20:00:00 -1.5 2 Sudoeste 5 Oeste 0 -- -- 87
2021-01-12 19:00:00 -0.4 3 Oeste 6 Oeste 0 -- -- 83
2021-01-12 18:00:00 1.7 4 Oeste 9 Oeste 0 -- -- 76
2021-01-12 17:00:00 3 5 Oeste 12 Sudoeste 0 -- -- 73
2021-01-12 16:00:00 3.2 5 Noroeste 11 Noroeste 0 -- -- 74
2021-01-12 15:00:00 3.2 4 Noroeste 15 Norte 0 -- -- 73
2021-01-12 14:00:00 3 6 Noroeste 16 Norte 0 -- -- 73
2021-01-12 13:00:00 2 8 Norte 15 Norte 0 -- -- 77
2021-01-12 12:00:00 0.8 4 Oeste 10 Oeste 0 -- -- 80
2021-01-12 11:00:00 -0.7 6 Norte 11 Norte 0 -- -- 84
2021-01-12 10:00:00 -3.9 5 Norte 13 Nordeste 0 -- -- 93
2021-01-12 09:00:00 -5.6 4 Norte 8 Norte 0 -- -- 92
2021-01-12 08:00:00 -5 3 Oeste 6 Noroeste 0 -- -- 92
2021-01-12 07:00:00 -5.1 3 Noroeste 10 Norte 0 -- -- 91
2021-01-12 06:00:00 -4.7 4 Norte 15 Norte 0 -- -- 90
2021-01-12 05:00:00 -4 10 Norte 21 Noroeste 0 -- -- 89
2021-01-12 04:00:00 -3.2 6 Norte 13 Nordeste 0 -- -- 84
2021-01-12 03:00:00 -2.5 10 Norte 27 Norte 0 -- -- 83
2021-01-12 02:00:00 -2.2 7 Nordeste 19 Nordeste 0 -- -- 81
2021-01-12 01:00:00 -1.8 5 Nordeste 26 Nordeste 0 -- -- 79
2021-01-12 00:00:00 -1.3 14 Nordeste 47 Nordeste 0 -- -- 77
2021-01-11 23:00:00 -1.1 24 Nordeste 39 Nordeste 0 -- -- 77
2021-01-11 22:00:00 -1.5 14 Norte 30 Norte 0 -- -- 78
2021-01-11 21:00:00 -1.2 14 Norte 25 Norte 0 -- -- 81
2021-01-11 20:00:00 -0.7 9 Nordeste 37 Nordeste 0 -- -- 82
2021-01-11 19:00:00 -0.3 15 Nordeste 36 Norte 0 -- -- 84
2021-01-11 18:00:00 0 23 Nordeste 45 Norte 0 -- -- 80
2021-01-11 17:00:00 0.7 21 Nordeste 44 Norte 0 -- -- 75
2021-01-11 16:00:00 1.2 21 Nordeste 39 Norte 0 -- -- 70
2021-01-11 15:00:00 0.8 22 Nordeste 37 Norte 0 -- -- 73
2021-01-11 14:00:00 0.6 23 Nordeste 45 Norte 0 -- -- 75
2021-01-11 13:00:00 0.9 24 Nordeste 51 Norte 0 -- -- 75
2021-01-11 12:00:00 0.9 22 Nordeste 46 Norte 0 -- -- 73
2021-01-11 11:00:00 -0.1 22 Nordeste 39 Norte 0 -- -- 77
2021-01-11 10:00:00 -0.9 12 Norte 24 Norte 0 -- -- 82
2021-01-11 09:00:00 -1 15 Norte 27 Nordeste 0 -- -- 80
2021-01-11 08:00:00 -1.1 19 Norte 52 Nordeste 0 -- -- 77
2021-01-11 07:00:00 -1 28 Norte 52 Norte 0 -- -- 74
2021-01-11 06:00:00 -1.1 19 Norte 45 Norte 0 -- -- 77
2021-01-11 05:00:00 -0.9 20 Norte 38 Norte 0 -- -- 80
2021-01-11 04:00:00 -0.9 24 Nordeste 45 Norte 0 -- -- 81
2021-01-11 03:00:00 -1.1 35 Norte 55 Norte 0 -- -- 79
2021-01-11 02:00:00 -1 36 Norte 56 Norte 0 -- -- 82
2021-01-11 01:00:00 -0.9 30 Nordeste 57 Nordeste 0 -- -- 78
2021-01-11 00:00:00 -1 36 Norte 56 Norte 0 -- -- 80
2021-01-10 23:00:00 -1.3 32 Norte 51 Norte 0 -- -- 82
2021-01-10 22:00:00 -1.2 22 Nordeste 39 Nordeste 0 -- -- 81
2021-01-10 21:00:00 -1.5 19 Nordeste 38 Nordeste 0 -- -- 82
2021-01-10 20:00:00 -1.4 22 Nordeste 57 Norte 0 -- -- 77
2021-01-10 19:00:00 -1.2 29 Nordeste 44 Norte 0 -- -- 75
2021-01-10 18:00:00 -0.8 31 Nordeste 47 Nordeste 0 -- -- 78
2021-01-10 17:00:00 -0.4 23 Nordeste 45 Nordeste 0 -- -- 75
2021-01-10 16:00:00 -0.2 24 Nordeste 40 Nordeste 0 -- -- 79
2021-01-10 15:00:00 0.1 22 Nordeste 37 Nordeste 0 -- -- 79
2021-01-10 14:00:00 -0.1 21 Nordeste 41 Nordeste 0 -- -- 82
2021-01-10 13:00:00 0.6 26 Nordeste 42 Nordeste 0 -- -- 79
2021-01-10 12:00:00 -0.4 24 Nordeste 40 Nordeste 0 -- -- 84
2021-01-10 11:00:00 -0.5 16 Nordeste 50 Nordeste 0 -- -- 83
2021-01-10 10:00:00 -0.5 32 Nordeste 59 Nordeste 0 -- -- 82
2021-01-10 09:00:00 -0.9 29 Nordeste 55 Nordeste 0 -- -- 84
2021-01-10 08:00:00 -0.9 28 Nordeste 44 Nordeste 0 -- -- 87
2021-01-10 07:00:00 -1.6 15 Nordeste 37 Nordeste 0 -- -- 90
2021-01-10 06:00:00 -1.6 22 Nordeste 40 Nordeste 0 -- -- 89
2021-01-10 05:00:00 -1.7 25 Nordeste 41 Norte 0 -- -- 88
2021-01-10 04:00:00 -1.8 21 Nordeste 34 Nordeste 0 -- -- 85
2021-01-10 03:00:00 -2 23 Nordeste 37 Norte 0 -- -- 84
2021-01-10 02:00:00 -2.1 22 Nordeste 42 Nordeste 0 -- -- 85
2021-01-10 01:00:00 -2.3 24 Nordeste 44 Nordeste 0 -- -- 84
2021-01-10 00:00:00 -2.8 25 Nordeste 47 Nordeste 0 -- -- 89
2021-01-09 23:00:00 -2.6 24 Nordeste 40 Nordeste 0 -- -- 86
2021-01-09 22:00:00 -2.6 19 Nordeste 39 Nordeste 0 -- -- 83
2021-01-09 21:00:00 -2.7 23 Nordeste 37 Este 0 -- -- 84
2021-01-09 20:00:00 -2.7 21 Nordeste 44 Nordeste 0 -- -- 85
2021-01-09 19:00:00 -2.7 26 Nordeste 44 Nordeste 0 -- -- 83
2021-01-09 18:00:00 -2.7 27 Nordeste 46 Nordeste 0.2 -- -- 85
2021-01-09 17:00:00 -2.6 27 Nordeste 46 Nordeste 0 -- -- 86
2021-01-09 16:00:00 -2.7 25 Nordeste 64 Nordeste 0 -- -- 87
2021-01-09 15:00:00 -2.9 27 Nordeste 58 Nordeste 0.2 -- -- 88
2021-01-09 14:00:00 -3 28 Nordeste 55 Nordeste 0.2 -- -- 88
2021-01-09 13:00:00 -3.2 28 Nordeste 54 Nordeste 0 -- -- 88
2021-01-09 12:00:00 -3.6 30 Nordeste 66 Nordeste 0.4 -- -- 89
2021-01-09 11:00:00 -3.9 31 Nordeste 53 Nordeste 0.2 -- -- 90
2021-01-09 10:00:00 -3.8 28 Nordeste 57 Norte 0 -- -- 86
2021-01-09 09:00:00 -3.7 28 Nordeste 64 Nordeste 0 -- -- 83
2021-01-09 08:00:00 -3.7 27 Nordeste 46 Nordeste 0 -- -- 84
2021-01-09 07:00:00 -3.8 24 Nordeste 42 Nordeste 0 -- -- 86
2021-01-09 06:00:00 -3.9 26 Nordeste 40 Nordeste 0 -- -- 89
2021-01-09 05:00:00 -3.7 24 Nordeste 40 Nordeste 0 -- -- 87
2021-01-09 04:00:00 -3.6 21 Nordeste 43 Nordeste 0 -- -- 87
2021-01-09 03:00:00 -3.3 21 Nordeste 40 Nordeste 0 -- -- 84
2021-01-09 02:00:00 -3.3 23 Nordeste 40 Nordeste 0 -- -- 85
2021-01-09 01:00:00 -2.9 22 Nordeste 40 Nordeste 0 -- -- 80
2021-01-09 00:00:00 -2.8 21 Nordeste 39 Nordeste 0 -- -- 80
2021-01-08 23:00:00 -2.7 20 Nordeste 38 Nordeste 0 -- -- 81
2021-01-08 22:00:00 -2.5 21 Nordeste 37 Nordeste 0 -- -- 80
2021-01-08 21:00:00 -2.3 20 Nordeste 39 Nordeste 0 -- -- 78
2021-01-08 20:00:00 -2.2 20 Nordeste 33 Nordeste 0 -- -- 77
2021-01-08 19:00:00 -2 18 Nordeste 35 Nordeste 0 -- -- 75
2021-01-08 18:00:00 -1.8 20 Nordeste 38 Nordeste 0 -- -- 72
2021-01-08 17:00:00 -1.6 22 Nordeste 41 Nordeste 0 -- -- 72
2021-01-08 16:00:00 -1.4 21 Nordeste 38 Nordeste 0 -- -- 71
2021-01-08 15:00:00 -1.3 21 Nordeste 35 Nordeste 0 -- -- 70
2021-01-08 14:00:00 -1.1 21 Nordeste 37 Nordeste 0 -- -- 70
2021-01-08 13:00:00 -1.9 21 Nordeste 38 Nordeste 0 -- -- 72
2021-01-08 12:00:00 -2.8 23 Nordeste 41 Nordeste 0 -- -- 77
2021-01-08 11:00:00 -3.4 22 Nordeste 37 Nordeste 0 -- -- 79
2021-01-08 10:00:00 -4.1 18 Nordeste 31 Nordeste 0 -- -- 80
2021-01-08 09:00:00 -4.6 15 Nordeste 31 Nordeste 0 -- -- 81
2021-01-08 08:00:00 -4.6 16 Nordeste 28 Nordeste 0 -- -- 80
2021-01-08 07:00:00 -4.8 14 Nordeste 23 Nordeste 0 -- -- 81
2021-01-08 06:00:00 -4.6 12 Nordeste 27 Nordeste 0 -- -- 81
2021-01-08 05:00:00 -4.1 16 Nordeste 33 Nordeste 0 -- -- 82
2021-01-08 04:00:00 -4 14 Nordeste 38 Nordeste 0 -- -- 83
2021-01-08 03:00:00 -3.5 19 Nordeste 37 Nordeste 0 -- -- 82
2021-01-08 02:00:00 -3.6 16 Nordeste 36 Nordeste 0 -- -- 82
2021-01-08 01:00:00 -3.2 14 Nordeste 28 Nordeste 0 -- -- 82
2021-01-08 00:00:00 -3.2 15 Nordeste 27 Nordeste 0 -- -- 84
2021-01-07 23:00:00 -3.2 15 Nordeste 23 Norte 0 -- -- 84
2021-01-07 22:00:00 -3 10 Nordeste 18 Nordeste 0 -- -- 82
2021-01-07 21:00:00 -2.6 8 Este 17 Nordeste 0 -- -- 78
2021-01-07 20:00:00 -1.9 11 Nordeste 17 Nordeste 0 -- -- 76
2021-01-07 19:00:00 -0.9 9 Nordeste 18 Nordeste 0 -- -- 74
2021-01-07 18:00:00 0.7 8 Nordeste 25 Nordeste 0 -- -- 67
2021-01-07 17:00:00 2.5 13 Nordeste 23 Norte 0 -- -- 61
2021-01-07 16:00:00 3.4 14 Norte 23 Noroeste 0 -- -- 61
2021-01-07 15:00:00 3.5 10 Norte 18 Nordeste 0 -- -- 59
2021-01-07 14:00:00 2.7 9 Norte 14 Norte 0 -- -- 58
2021-01-07 13:00:00 1.7 8 Norte 13 Noroeste 0 -- -- 65
2021-01-07 12:00:00 -0.3 3 Oeste 6 Norte 0 -- -- 71
2021-01-07 11:00:00 -3.7 0 Calma 8 Nordeste 0 -- -- 83
2021-01-07 10:00:00 -5.8 4 Nordeste 10 Nordeste 0 -- -- 86
2021-01-07 09:00:00 -6.3 3 Este 6 Nordeste 0 -- -- 88
2021-01-07 08:00:00 -5.7 2 Sur 10 Este 0 -- -- 86
2021-01-07 07:00:00 -5.2 6 Nordeste 13 Nordeste 0 -- -- 82
2021-01-07 06:00:00 -6.3 3 Norte 9 Nordeste 0 -- -- 85
2021-01-07 05:00:00 -5.7 2 Este 8 Este 0 -- -- 85
2021-01-07 04:00:00 -4.9 3 Nordeste 10 Este 0 -- -- 82
2021-01-07 03:00:00 -3.9 8 Este 19 Este 0 -- -- 79
2021-01-07 02:00:00 -4.1 10 Este 15 Este 0 -- -- 80
2021-01-07 01:00:00 -3.5 10 Este 13 Este 0 -- -- 79
2021-01-07 00:00:00 -3.5 6 Nordeste 15 Este 0 -- -- 81
2021-01-06 23:00:00 -3.1 9 Este 13 Este 0 -- -- 78
2021-01-06 22:00:00 -2.8 8 Este 13 Este 0 -- -- 80
2021-01-06 21:00:00 -2.1 6 Este 13 Este 0 -- -- 78
2021-01-06 20:00:00 -1.4 7 Este 10 Este 0 -- -- 76
2021-01-06 19:00:00 -0.5 5 Este 11 Este 0 -- -- 73
2021-01-06 18:00:00 0.8 6 Este 10 Este 0 -- -- 67
2021-01-06 17:00:00 1.7 4 Nordeste 20 Nordeste 0 -- -- 68
2021-01-06 16:00:00 3.9 4 Norte 14 Norte 0 -- -- 61
2021-01-06 15:00:00 3.3 4 Norte 9 Oeste 0 -- -- 60
2021-01-06 14:00:00 2.1 3 Noroeste 6 Noroeste 0 -- -- 67
2021-01-06 13:00:00 0.7 3 Noroeste 10 Sudoeste 0 -- -- 79
2021-01-06 12:00:00 -0.9 7 Sudoeste 9 Sudoeste 0 -- -- 87
2021-01-06 11:00:00 -2.1 2 Sur 6 Sudoeste 0 -- -- 92
2021-01-06 10:00:00 -3 0 Calma 5 Norte 0 -- -- 94
2021-01-06 09:00:00 -3.7 3 Nordeste 6 Norte 0 -- -- 95
2021-01-06 08:00:00 -4.1 3 Norte 6 Norte 0 -- -- 94
2021-01-06 07:00:00 -4.2 2 Sudeste 9 Norte 0 -- -- 94
2021-01-06 06:00:00 -4.6 3 Sudeste 9 Este 0 -- -- 95
2021-01-06 05:00:00 -5.6 4 Nordeste 6 Nordeste 0 -- -- 93
2021-01-06 04:00:00 -5.1 0 Calma 5 Sur 0 -- -- 93
2021-01-06 03:00:00 -4.8 2 Nordeste 4 Sudeste 0 -- -- 93
2021-01-06 02:00:00 -4.3 2 Sudeste 8 Sur 0 -- -- 93
2021-01-06 01:00:00 -4 0 Calma 9 Este 0 -- -- 93
2021-01-06 00:00:00 -3.9 4 Nordeste 9 Sudeste 0 -- -- 93
2021-01-05 23:00:00 -3.5 3 Sudeste 8 Este 0 -- -- 93
2021-01-05 22:00:00 -3.2 4 Nordeste 7 Este 0 -- -- 92
2021-01-05 21:00:00 -2.4 7 Este 11 Este 0 -- -- 91
2021-01-05 20:00:00 -1.6 6 Sudeste 10 Sudeste 0 -- -- 88
2021-01-05 19:00:00 -0.6 6 Sudeste 9 Sudeste 0 -- -- 85
2021-01-05 18:00:00 1.5 3 Sudeste 6 Sur 0 -- -- 77
2021-01-05 17:00:00 2.4 4 Sudeste 12 Sur 0 -- -- 76
2021-01-05 16:00:00 1.9 7 Sur 15 Sur 0 -- -- 79
2021-01-05 15:00:00 1.7 9 Sur 18 Sur 0 -- -- 80
2021-01-05 14:00:00 0.4 9 Sur 17 Sur 0 -- -- 81
2021-01-05 13:00:00 -1.1 12 Sur 17 Sur 0 -- -- 91
2021-01-05 12:00:00 -3.5 9 Sur 19 Sudoeste 0 -- -- 98
2021-01-05 11:00:00 -3.9 11 Sur 18 Sur 0 -- -- 97
2021-01-05 10:00:00 -4.4 10 Sur 14 Sur 0 -- -- 97
2021-01-05 09:00:00 -4.8 10 Sur 17 Sudoeste 0 -- -- 96
2021-01-05 08:00:00 -4.8 7 Sur 14 Sudoeste 0 -- -- 96
2021-01-05 07:00:00 -5.6 7 Sur 19 Sur 0 -- -- 95
2021-01-05 06:00:00 -5.5 2 Sur 6 Este 0 -- -- 94
2021-01-05 05:00:00 -5.3 4 Este 6 Sudeste 0 -- -- 96
2021-01-05 04:00:00 -4.9 4 Sudeste 9 Sudeste 0 -- -- 96
2021-01-05 03:00:00 -4.7 6 Sur 7 Sur 0 -- -- 95
2021-01-05 02:00:00 -4.2 5 Sur 6 Sur 0 -- -- 95
2021-01-05 01:00:00 -3.9 3 Norte 6 Nordeste 0 -- -- 94
2021-01-05 00:00:00 -3.4 3 Sudoeste 6 Sudoeste 0 -- -- 93
2021-01-04 23:00:00 -3.1 0 Calma 6 Este 0 -- -- 91
2021-01-04 22:00:00 -2.6 4 Nordeste 9 Nordeste 0 -- -- 91
2021-01-04 21:00:00 -1.5 8 Nordeste 19 Norte 0 -- -- 89
2021-01-04 20:00:00 -1.1 11 Nordeste 17 Norte 0 -- -- 87
2021-01-04 19:00:00 -0.3 12 Nordeste 20 Norte 0.2 -- -- 87
2021-01-04 18:00:00 0.9 5 Norte 9 Nordeste 0 -- -- 84
2021-01-04 17:00:00 1.6 5 Norte 22 Noroeste 0 -- -- 78
2021-01-04 16:00:00 2.2 8 Oeste 24 Noroeste 0 -- -- 72
2021-01-04 15:00:00 2.7 12 Oeste 23 Oeste 0 -- -- 71
2021-01-04 14:00:00 1.4 8 Oeste 24 Oeste 0 -- -- 78
2021-01-04 13:00:00 0.6 10 Oeste 22 Oeste 0 -- -- 81
2021-01-04 12:00:00 0 8 Sudoeste 25 Sur 0 -- -- 83
2021-01-04 11:00:00 -2.6 12 Sur 22 Sudoeste 0 -- -- 92
2021-01-04 10:00:00 -3.2 14 Sudoeste 19 Sudoeste 0 -- -- 94
2021-01-04 09:00:00 -4.3 6 Sur 17 Sur 0 -- -- 94
2021-01-04 08:00:00 -3.9 12 Sur 19 Sudoeste 0 -- -- 94
2021-01-04 07:00:00 -3.5 9 Sur 16 Sudoeste 0 -- -- 94
2021-01-04 06:00:00 -3.4 9 Sur 15 Sudoeste 0 -- -- 95
2021-01-04 05:00:00 -2.9 8 Sudoeste 14 Sudoeste 0 -- -- 94
2021-01-04 04:00:00 -3 6 Sudoeste 14 Sudoeste 0 -- -- 94
2021-01-04 03:00:00 -2.6 8 Sudoeste 14 Sudoeste 0 -- -- 94
2021-01-04 02:00:00 -2.2 5 Sudoeste 10 Sudoeste 0 -- -- 93
2021-01-04 01:00:00 -1.7 6 Sudoeste 12 Sudoeste 0 -- -- 93
2021-01-04 00:00:00 -1.6 6 Sur 10 Sudoeste 0 -- -- 94
2021-01-03 23:00:00 -1 4 Sudoeste 11 Sudoeste 0 -- -- 94
2021-01-03 22:00:00 -0.6 7 Sudoeste 23 Sudoeste 0 -- -- 95
2021-01-03 21:00:00 -0.2 12 Sudoeste 24 Sudoeste 0 -- -- 94
2021-01-03 20:00:00 0 15 Sudoeste 27 Sudoeste 0 -- -- 93
2021-01-03 19:00:00 -0.1 17 Sur 32 Sudoeste 0 -- -- 92
2021-01-03 18:00:00 0.9 21 Sudoeste 31 Sur 0 -- -- 88
2021-01-03 17:00:00 2 17 Sudoeste 32 Sudoeste 0 -- -- 82
2021-01-03 16:00:00 2.7 14 Sudoeste 31 Oeste 0 -- -- 81
2021-01-03 15:00:00 2.1 9 Oeste 24 Oeste 0 -- -- 81
2021-01-03 14:00:00 1 12 Sudoeste 21 Sudoeste 0 -- -- 84
2021-01-03 13:00:00 0.2 9 Sudoeste 20 Sur 0 -- -- 89
2021-01-03 12:00:00 -1.1 9 Sudoeste 17 Sudoeste 0 -- -- 91
2021-01-03 11:00:00 -2.2 10 Sudoeste 18 Sur 0 -- -- 93
2021-01-03 10:00:00 -3.4 9 Sur 22 Sur 0 -- -- 94
2021-01-03 09:00:00 -4.2 10 Sur 15 Sur 0 -- -- 94
2021-01-03 08:00:00 -4.3 8 Sur 11 Sur 0 -- -- 95
2021-01-03 07:00:00 -4.3 4 Sudoeste 7 Sur 0 -- -- 93
2021-01-03 06:00:00 -3.8 0 Calma 6 Sudoeste 0 -- -- 93
2021-01-03 05:00:00 -3.4 4 Sudoeste 8 Oeste 0 -- -- 92
2021-01-03 04:00:00 -2.7 4 Oeste 8 Oeste 0 -- -- 91
2021-01-03 03:00:00 -1.7 4 Oeste 9 Oeste 0 -- -- 92
2021-01-03 02:00:00 -1.4 3 Oeste 8 Oeste 0 -- -- 92
2021-01-03 01:00:00 -1 6 Noroeste 11 Noroeste 0 -- -- 91
2021-01-03 00:00:00 -0.9 5 Noroeste 12 Noroeste 0 -- -- 90
2021-01-02 23:00:00 -1 6 Noroeste 19 Norte 0 -- -- 90
2021-01-02 22:00:00 -0.9 11 Norte 18 Norte 0 -- -- 87
2021-01-02 21:00:00 -0.9 13 Norte 25 Noroeste 0 -- -- 85
2021-01-02 20:00:00 -1.5 12 Norte 23 Noroeste 0 -- -- 90
2021-01-02 19:00:00 -1.3 14 Norte 31 Norte 0 -- -- 85
2021-01-02 18:00:00 -0.5 13 Norte 36 Norte 0 -- -- 78
2021-01-02 17:00:00 0.8 22 Norte 40 Norte 0 -- -- 69
2021-01-02 16:00:00 1 28 Norte 45 Norte 0 -- -- 69
2021-01-02 15:00:00 1.7 29 Norte 41 Norte 0 -- -- 72
2021-01-02 14:00:00 0.6 28 Norte 44 Norte 0 -- -- 82